createdAt,value
2023-03-28T00:00:41.443Z,100.00
2023-03-28T00:03:09.277Z,100.00
2023-03-28T00:05:41.242Z,100.00
2023-03-28T00:08:11.923Z,100.00
2023-03-28T00:10:39.676Z,100.00
2023-03-28T00:13:07.849Z,100.00
2023-03-28T00:15:38.100Z,100.00
2023-03-28T00:18:06.611Z,100.00
2023-03-28T00:20:40.221Z,100.00
2023-03-28T00:23:09.560Z,100.00
2023-03-28T00:25:40.135Z,100.00
2023-03-28T00:28:07.993Z,100.00
2023-03-28T00:30:35.761Z,100.00
2023-03-28T00:33:05.154Z,100.00
2023-03-28T00:35:33.738Z,100.00
2023-03-28T00:38:03.430Z,100.00
2023-03-28T00:40:37.051Z,100.00
2023-03-28T00:43:05.284Z,100.00
2023-03-28T00:45:33.906Z,100.00
2023-03-28T00:48:06.778Z,100.00
2023-03-28T00:50:48.727Z,100.00
2023-03-28T00:53:21.043Z,100.00
2023-03-28T00:55:52.684Z,100.00
2023-03-28T00:58:23.935Z,100.00
2023-03-28T01:00:52.109Z,100.00
2023-03-28T01:03:22.577Z,100.00
2023-03-28T01:05:51.160Z,100.00
2023-03-28T01:08:23.115Z,100.00
2023-03-28T01:10:51.373Z,100.00
2023-03-28T01:13:22.412Z,100.00
2023-03-28T01:15:51.335Z,100.00
2023-03-28T01:18:22.760Z,100.00
2023-03-28T01:21:16.878Z,100.00
2023-03-28T01:24:19.481Z,100.00
2023-03-28T01:26:55.491Z,100.00
2023-03-28T01:29:45.631Z,100.00
2023-03-28T01:32:52.304Z,100.00
2023-03-28T01:35:51.472Z,100.00
2023-03-28T01:38:24.430Z,100.00
2023-03-28T01:41:01.862Z,100.00
2023-03-28T01:43:41.244Z,100.00
2023-03-28T01:46:16.343Z,100.00
2023-03-28T01:48:57.584Z,100.00
2023-03-28T01:51:36.326Z,100.00
2023-03-28T01:54:16.103Z,100.00
2023-03-28T01:56:51.025Z,100.00
2023-03-28T01:59:26.889Z,100.00
2023-03-28T02:02:02.744Z,100.00
2023-03-28T02:04:33.740Z,100.00
2023-03-28T02:07:03.836Z,100.00
2023-03-28T02:09:37.142Z,100.00
2023-03-28T02:12:11.073Z,100.00
2023-03-28T02:14:42.252Z,100.00
2023-03-28T02:17:16.648Z,100.00
2023-03-28T02:19:50.271Z,100.00
2023-03-28T02:22:23.877Z,100.00
2023-03-28T02:24:53.047Z,100.00
2023-03-28T02:27:22.646Z,100.00
2023-03-28T02:29:54.376Z,100.00
2023-03-28T02:32:23.853Z,100.00
2023-03-28T02:34:55.251Z,100.00
2023-03-28T02:37:37.844Z,100.00
2023-03-28T02:40:31.445Z,100.00
2023-03-28T02:43:10.726Z,100.00
2023-03-28T02:45:58.519Z,100.00
2023-03-28T02:48:37.779Z,100.00
2023-03-28T02:51:19.590Z,100.00
2023-03-28T02:53:57.372Z,100.00
2023-03-28T02:56:37.076Z,100.00
2023-03-28T02:59:09.521Z,100.00
2023-03-28T03:01:40.880Z,100.00
2023-03-28T03:04:08.923Z,100.00
2023-03-28T03:06:37.031Z,100.00
2023-03-28T03:09:05.820Z,100.00
2023-03-28T03:11:34.964Z,100.00
2023-03-28T03:14:02.759Z,100.00
2023-03-28T03:16:30.612Z,100.00
2023-03-28T03:18:58.418Z,100.00
2023-03-28T03:21:26.276Z,100.00
2023-03-28T03:23:54.050Z,100.00
2023-03-28T03:26:22.543Z,100.00
2023-03-28T03:28:51.622Z,100.00
2023-03-28T03:31:21.530Z,100.00
2023-03-28T03:33:49.405Z,100.00
2023-03-28T03:36:17.183Z,100.00
2023-03-28T03:38:44.926Z,100.00
2023-03-28T03:41:12.749Z,100.00
2023-03-28T03:43:41.203Z,100.00
2023-03-28T03:46:10.444Z,100.00
2023-03-28T03:48:38.413Z,100.00
2023-03-28T03:51:17.497Z,100.00
2023-03-28T03:53:46.697Z,100.00
2023-03-28T03:56:14.557Z,100.00
2023-03-28T03:58:42.374Z,100.00
2023-03-28T04:01:13.999Z,100.00
2023-03-28T04:03:42.392Z,100.00
2023-03-28T04:06:10.731Z,100.00
2023-03-28T04:08:38.474Z,100.00
2023-03-28T04:11:07.862Z,100.00
2023-03-28T04:13:35.639Z,100.00
2023-03-28T04:16:03.789Z,100.00
2023-03-28T04:18:35.156Z,100.00
2023-03-28T04:21:03.795Z,100.00
2023-03-28T04:23:31.543Z,100.00
2023-03-28T04:25:59.505Z,100.00
2023-03-28T04:28:27.801Z,100.00
2023-03-28T04:30:58.299Z,100.00
2023-03-28T04:33:26.154Z,100.00
2023-03-28T04:36:00.459Z,100.00
2023-03-28T04:38:29.775Z,99.87
2023-03-28T04:40:58.672Z,99.72
2023-03-28T04:43:26.926Z,99.70
2023-03-28T04:45:55.288Z,99.46
2023-03-28T04:48:23.920Z,99.59
2023-03-28T04:50:51.926Z,99.01
2023-03-28T04:53:21.551Z,99.14
2023-03-28T04:55:50.244Z,98.48
2023-03-28T04:58:18.718Z,98.07
2023-03-28T05:00:47.120Z,97.24
2023-03-28T05:03:18.344Z,96.14
2023-03-28T05:05:46.698Z,95.68
2023-03-28T05:08:16.269Z,95.24
2023-03-28T05:10:46.376Z,94.54
2023-03-28T05:13:15.056Z,94.25
2023-03-28T05:15:43.068Z,93.25
2023-03-28T05:18:11.566Z,92.96
2023-03-28T05:20:39.345Z,92.29
2023-03-28T05:23:07.392Z,91.76
2023-03-28T05:25:35.792Z,92.00
2023-03-28T05:28:05.133Z,90.82
2023-03-28T05:30:32.915Z,91.26
2023-03-28T05:33:00.872Z,91.26
2023-03-28T05:35:28.754Z,91.12
2023-03-28T05:37:56.493Z,91.34
2023-03-28T05:40:24.308Z,91.77
2023-03-28T05:42:52.241Z,91.77
2023-03-28T05:45:22.579Z,91.63
2023-03-28T05:47:51.770Z,91.41
2023-03-28T05:50:19.535Z,90.82
2023-03-28T05:52:47.281Z,90.90
2023-03-28T05:55:15.139Z,90.16
2023-03-28T05:57:44.119Z,89.58
2023-03-28T06:00:13.819Z,89.96
2023-03-28T06:02:43.427Z,89.54
2023-03-28T06:05:11.553Z,89.47
2023-03-28T06:07:42.936Z,89.41
2023-03-28T06:10:12.559Z,89.15
2023-03-28T06:12:40.813Z,89.70
2023-03-28T06:15:10.039Z,89.89
2023-03-28T06:17:38.264Z,90.20
2023-03-28T06:20:09.836Z,89.83
2023-03-28T06:22:37.911Z,89.71
2023-03-28T06:25:06.840Z,89.97
2023-03-28T06:27:35.589Z,89.92
2023-03-28T06:30:04.606Z,88.56
2023-03-28T06:32:32.466Z,88.10
2023-03-28T06:35:00.252Z,86.71
2023-03-28T06:37:29.397Z,86.81
2023-03-28T06:39:57.589Z,87.05
2023-03-28T06:42:25.356Z,86.44
2023-03-28T06:44:53.099Z,85.34
2023-03-28T06:47:21.085Z,85.17
2023-03-28T06:49:48.847Z,86.20
2023-03-28T06:52:16.790Z,87.14
2023-03-28T06:54:48.383Z,86.10
2023-03-28T06:57:16.502Z,85.78
2023-03-28T06:59:44.409Z,85.10
2023-03-28T07:02:12.859Z,83.90
2023-03-28T07:04:40.949Z,83.25
2023-03-28T07:07:09.551Z,83.25
2023-03-28T07:09:37.854Z,82.46
2023-03-28T07:12:07.641Z,82.29
2023-03-28T07:14:35.718Z,81.81
2023-03-28T07:17:03.532Z,82.71
2023-03-28T07:19:31.372Z,81.74
2023-03-28T07:21:59.214Z,81.14
2023-03-28T07:24:27.331Z,82.15
2023-03-28T07:27:11.770Z,82.22
2023-03-28T07:29:44.419Z,82.92
2023-03-28T07:32:12.268Z,83.16
2023-03-28T07:34:40.028Z,84.88
2023-03-28T07:37:08.964Z,84.94
2023-03-28T07:39:39.891Z,84.60
2023-03-28T07:42:10.717Z,83.75
2023-03-28T07:44:40.318Z,82.99
2023-03-28T07:47:12.103Z,82.16
2023-03-28T07:49:41.122Z,82.59
2023-03-28T07:52:09.259Z,81.78
2023-03-28T07:54:37.370Z,81.93
2023-03-28T07:57:05.795Z,83.17
2023-03-28T07:59:33.894Z,83.67
2023-03-28T08:02:01.703Z,82.88
2023-03-28T08:04:31.231Z,80.79
2023-03-28T08:07:00.244Z,80.76
2023-03-28T08:09:28.094Z,80.94
2023-03-28T08:11:55.953Z,81.21
2023-03-28T08:14:23.752Z,79.14
2023-03-28T08:16:52.092Z,79.05
2023-03-28T08:19:19.889Z,78.85
2023-03-28T08:21:49.082Z,78.30
2023-03-28T08:24:25.346Z,77.99
2023-03-28T08:27:01.657Z,75.59
2023-03-28T08:29:29.418Z,75.61
2023-03-28T08:31:57.602Z,76.28
2023-03-28T08:34:25.885Z,74.85
2023-03-28T08:36:55.048Z,72.99
2023-03-28T08:39:23.371Z,72.54
2023-03-28T08:42:13.945Z,73.69
2023-03-28T08:45:05.493Z,73.29
2023-03-28T08:47:36.427Z,71.33
2023-03-28T08:50:13.340Z,69.85
2023-03-28T08:52:44.547Z,69.96
2023-03-28T08:55:28.025Z,69.01
2023-03-28T08:57:56.916Z,68.93
2023-03-28T09:00:28.456Z,68.98
2023-03-28T09:02:57.038Z,67.44
2023-03-28T09:05:35.068Z,67.20
2023-03-28T09:08:19.797Z,67.37
2023-03-28T09:10:54.196Z,66.91
2023-03-28T09:13:34.410Z,66.00
2023-03-28T09:16:16.769Z,66.07
2023-03-28T09:19:10.506Z,65.03
2023-03-28T09:21:57.541Z,67.24
2023-03-28T09:24:57.388Z,65.80
2023-03-28T09:27:31.089Z,66.24
2023-03-28T09:30:18.822Z,65.10
2023-03-28T09:32:50.510Z,65.61
2023-03-28T09:35:21.312Z,66.18
2023-03-28T09:37:52.847Z,65.29
2023-03-28T09:40:25.001Z,66.71
2023-03-28T09:43:02.917Z,68.07
2023-03-28T09:45:41.817Z,66.33
2023-03-28T09:48:19.152Z,67.03
2023-03-28T09:50:47.845Z,66.38
2023-03-28T09:53:22.842Z,65.94
2023-03-28T09:56:03.345Z,64.74
2023-03-28T09:58:49.833Z,65.06
2023-03-28T10:01:33.463Z,64.66
2023-03-28T10:04:02.033Z,63.45
2023-03-28T10:06:32.633Z,63.51
2023-03-28T10:09:18.161Z,63.19
2023-03-28T10:11:52.053Z,62.40
2023-03-28T10:14:34.466Z,61.74
2023-03-28T10:17:04.779Z,62.32
2023-03-28T10:19:35.914Z,65.87
2023-03-28T10:22:08.358Z,68.25
2023-03-28T10:24:37.796Z,68.51
2023-03-28T10:27:18.052Z,68.18
2023-03-28T10:29:47.836Z,69.04
2023-03-28T10:32:25.983Z,67.12
2023-03-28T10:35:02.527Z,65.06
2023-03-28T10:37:32.634Z,61.35
2023-03-28T10:40:04.742Z,61.68
2023-03-28T10:42:42.955Z,63.20
2023-03-28T10:45:23.774Z,63.02
2023-03-28T10:47:54.737Z,62.18
2023-03-28T10:50:27.955Z,62.20
2023-03-28T10:53:21.928Z,62.27
2023-03-28T10:56:01.604Z,61.96
2023-03-28T10:58:36.056Z,61.96
2023-03-28T11:01:11.344Z,62.77
2023-03-28T11:03:57.833Z,61.91
2023-03-28T11:06:32.620Z,60.90
2023-03-28T11:09:08.797Z,60.57
2023-03-28T11:11:51.093Z,60.00
2023-03-28T11:14:33.490Z,59.78
2023-03-28T11:17:09.372Z,60.02
2023-03-28T11:20:17.268Z,60.25
2023-03-28T11:23:04.964Z,62.29
2023-03-28T11:25:44.553Z,76.87
2023-03-28T11:28:21.123Z,88.82
2023-03-28T11:30:55.927Z,96.84
2023-03-28T11:33:28.784Z,100.00
2023-03-28T11:36:00.418Z,100.00
2023-03-28T11:38:33.450Z,100.00
2023-03-28T11:41:05.709Z,100.00
2023-03-28T11:43:41.764Z,98.89
2023-03-28T11:46:17.945Z,92.04
2023-03-28T11:48:50.231Z,87.26
2023-03-28T11:51:21.726Z,86.47
2023-03-28T11:53:55.244Z,93.46
2023-03-28T11:56:42.891Z,99.72
2023-03-28T11:59:16.494Z,100.00
2023-03-28T12:01:51.499Z,100.00
2023-03-28T12:04:23.508Z,100.00
2023-03-28T12:07:08.110Z,100.00
2023-03-28T12:09:42.711Z,100.00
2023-03-28T12:12:14.302Z,100.00
2023-03-28T12:14:51.036Z,90.00
2023-03-28T12:17:24.992Z,81.38
2023-03-28T12:19:53.883Z,75.55
2023-03-28T12:22:27.277Z,75.91
2023-03-28T12:25:01.233Z,76.61
2023-03-28T12:27:42.929Z,77.25
2023-03-28T12:30:22.467Z,77.54
2023-03-28T12:33:03.366Z,77.77
2023-03-28T12:35:38.629Z,78.74
2023-03-28T12:38:24.470Z,78.40
2023-03-28T12:40:55.811Z,78.16
2023-03-28T12:43:28.706Z,78.28
2023-03-28T12:46:01.497Z,76.63
2023-03-28T12:48:35.969Z,73.55
2023-03-28T12:51:13.848Z,71.33
2023-03-28T12:53:46.831Z,71.33
2023-03-28T12:56:16.630Z,68.52
2023-03-28T12:58:46.683Z,66.39
2023-03-28T13:01:33.495Z,65.97
2023-03-28T13:04:11.678Z,65.80
2023-03-28T13:06:49.317Z,64.80
2023-03-28T13:09:25.154Z,69.37
2023-03-28T13:11:59.058Z,72.53
2023-03-28T13:14:57.934Z,74.21
2023-03-28T13:17:26.942Z,73.23
2023-03-28T13:20:07.141Z,72.63
2023-03-28T13:22:40.352Z,73.64
2023-03-28T13:25:33.148Z,69.72
2023-03-28T13:28:02.438Z,69.06
2023-03-28T13:30:32.200Z,66.18
2023-03-28T13:33:03.485Z,67.11
2023-03-28T13:35:46.679Z,67.70
2023-03-28T13:38:16.718Z,71.03
2023-03-28T13:40:54.463Z,74.75
2023-03-28T13:43:27.106Z,71.20
2023-03-28T13:45:58.701Z,71.72
2023-03-28T13:48:33.698Z,71.20
2023-03-28T13:51:08.189Z,71.56
2023-03-28T13:53:46.941Z,70.69
2023-03-28T13:56:24.275Z,68.61
2023-03-28T13:58:53.753Z,65.37
2023-03-28T14:01:25.361Z,66.71
2023-03-28T14:03:54.296Z,65.05
2023-03-28T14:06:26.693Z,67.59
2023-03-28T14:08:56.574Z,70.29
2023-03-28T14:11:30.424Z,72.89
2023-03-28T14:14:08.825Z,75.29
2023-03-28T14:16:38.678Z,73.65
2023-03-28T14:19:07.510Z,73.62
2023-03-28T14:21:36.684Z,73.26
2023-03-28T14:24:07.910Z,72.91
2023-03-28T14:26:38.010Z,72.36
2023-03-28T14:29:08.112Z,74.31
2023-03-28T14:31:38.478Z,77.11
2023-03-28T14:34:16.617Z,81.02
2023-03-28T14:37:00.737Z,80.30
2023-03-28T14:39:30.299Z,80.01
2023-03-28T14:42:00.681Z,79.03
2023-03-28T14:44:30.275Z,75.44
2023-03-28T14:47:00.163Z,72.67
2023-03-28T14:49:28.792Z,70.12
2023-03-28T14:51:59.897Z,68.49
2023-03-28T14:54:32.732Z,65.94
2023-03-28T14:57:01.685Z,66.18
2023-03-28T14:59:36.821Z,63.34
2023-03-28T15:02:06.810Z,61.33
2023-03-28T15:04:35.974Z,61.79
2023-03-28T15:07:08.978Z,62.92
2023-03-28T15:09:36.978Z,62.79
2023-03-28T15:12:09.138Z,62.24
2023-03-28T15:14:42.646Z,62.95
2023-03-28T15:17:17.091Z,61.50
2023-03-28T15:19:46.767Z,59.12
2023-03-28T15:22:22.936Z,60.22
2023-03-28T15:24:51.628Z,61.08
2023-03-28T15:27:27.007Z,61.47
2023-03-28T15:29:55.854Z,61.50
2023-03-28T15:32:24.083Z,60.86
2023-03-28T15:34:57.815Z,60.07
2023-03-28T15:37:28.063Z,60.00
2023-03-28T15:40:12.852Z,60.26
2023-03-28T15:42:41.483Z,59.02
2023-03-28T15:45:40.962Z,57.85
2023-03-28T15:48:16.266Z,55.55
2023-03-28T15:50:49.242Z,55.18
2023-03-28T15:53:19.421Z,53.32
2023-03-28T15:55:49.854Z,53.45
2023-03-28T15:58:20.709Z,52.07
2023-03-28T16:00:50.071Z,52.63
2023-03-28T16:03:34.212Z,53.63
2023-03-28T16:06:23.300Z,53.73
2023-03-28T16:09:15.558Z,54.03
2023-03-28T16:11:43.886Z,53.79
2023-03-28T16:14:17.202Z,54.54
2023-03-28T16:16:45.467Z,55.21
2023-03-28T16:19:20.187Z,55.71
2023-03-28T16:21:48.698Z,55.31
2023-03-28T16:24:19.696Z,54.23
2023-03-28T16:26:47.735Z,53.71
2023-03-28T16:29:15.631Z,53.27
2023-03-28T16:31:44.245Z,52.70
2023-03-28T16:34:12.363Z,53.20
2023-03-28T16:36:40.129Z,53.23
2023-03-28T16:39:08.517Z,52.99
2023-03-28T16:41:37.714Z,53.81
2023-03-28T16:44:06.157Z,54.53
2023-03-28T16:46:34.061Z,54.05
2023-03-28T16:49:01.852Z,55.02
2023-03-28T16:51:29.604Z,55.10
2023-03-28T16:53:57.411Z,53.59
2023-03-28T16:56:27.277Z,54.04
2023-03-28T16:58:56.544Z,53.58
2023-03-28T17:01:24.488Z,53.74
2023-03-28T17:03:53.645Z,53.61
2023-03-28T17:06:21.879Z,54.02
2023-03-28T17:08:53.144Z,53.20
2023-03-28T17:11:22.026Z,53.35
2023-03-28T17:13:52.800Z,53.97
2023-03-28T17:16:22.551Z,53.89
2023-03-28T17:18:51.149Z,52.67
2023-03-28T17:21:19.889Z,53.85
2023-03-28T17:23:50.934Z,53.95
2023-03-28T17:26:43.527Z,53.44
2023-03-28T17:29:12.011Z,54.28
2023-03-28T17:31:41.834Z,54.94
2023-03-28T17:34:09.899Z,55.39
2023-03-28T17:36:37.972Z,55.46
2023-03-28T17:39:06.224Z,55.96
2023-03-28T17:41:33.962Z,55.73
2023-03-28T17:44:02.299Z,56.03
2023-03-28T17:46:30.228Z,56.13
2023-03-28T17:48:59.542Z,56.71
2023-03-28T17:51:27.393Z,57.14
2023-03-28T17:53:55.686Z,57.78
2023-03-28T17:56:24.257Z,57.72
2023-03-28T17:58:52.418Z,57.82
2023-03-28T18:01:20.704Z,57.50
2023-03-28T18:03:48.599Z,57.84
2023-03-28T18:06:18.592Z,57.72
2023-03-28T18:08:47.578Z,57.23
2023-03-28T18:11:17.771Z,57.92
2023-03-28T18:13:45.934Z,58.00
2023-03-28T18:16:18.069Z,57.66
2023-03-28T18:18:47.297Z,58.50
2023-03-28T18:21:15.158Z,58.12
2023-03-28T18:23:44.317Z,57.63
2023-03-28T18:26:12.292Z,58.06
2023-03-28T18:28:40.397Z,57.89
2023-03-28T18:31:09.528Z,57.84
2023-03-28T18:33:37.595Z,57.80
2023-03-28T18:36:05.977Z,58.70
2023-03-28T18:38:36.989Z,59.12
2023-03-28T18:41:06.817Z,59.21
2023-03-28T18:43:34.802Z,59.80
2023-03-28T18:46:03.594Z,59.83
2023-03-28T18:48:32.670Z,59.44
2023-03-28T18:51:01.944Z,59.72
2023-03-28T18:53:30.302Z,59.07
2023-03-28T18:55:59.747Z,59.28
2023-03-28T18:58:29.283Z,58.73
2023-03-28T19:00:59.191Z,58.90
2023-03-28T19:03:28.970Z,58.31
2023-03-28T19:05:57.568Z,58.92
2023-03-28T19:08:26.403Z,58.71
2023-03-28T19:10:54.784Z,59.14
2023-03-28T19:13:25.736Z,59.45
2023-03-28T19:16:02.534Z,59.29
2023-03-28T19:18:30.617Z,59.66
2023-03-28T19:20:58.527Z,59.67
2023-03-28T19:23:28.458Z,59.98
2023-03-28T19:25:56.887Z,60.00
2023-03-28T19:28:25.561Z,59.82
2023-03-28T19:31:06.424Z,59.90
2023-03-28T19:33:34.891Z,59.91
2023-03-28T19:36:03.055Z,59.56
2023-03-28T19:38:34.862Z,60.07
2023-03-28T19:41:06.085Z,60.48
2023-03-28T19:43:35.752Z,60.96
2023-03-28T19:46:06.270Z,61.84
2023-03-28T19:48:34.916Z,61.93
2023-03-28T19:51:03.417Z,62.35
2023-03-28T19:53:31.275Z,62.51
2023-03-28T19:56:00.829Z,63.07
2023-03-28T19:58:29.274Z,63.80
2023-03-28T20:00:57.840Z,64.87
2023-03-28T20:03:27.063Z,65.77
2023-03-28T20:05:54.848Z,66.19
2023-03-28T20:08:22.587Z,66.46
2023-03-28T20:10:52.558Z,66.75
2023-03-28T20:13:20.651Z,66.42
2023-03-28T20:15:48.459Z,66.76
2023-03-28T20:18:19.799Z,67.88
2023-03-28T20:20:53.510Z,68.88
2023-03-28T20:23:27.034Z,69.08
2023-03-28T20:25:55.392Z,69.95
2023-03-28T20:28:24.969Z,70.98
2023-03-28T20:30:54.272Z,71.60
2023-03-28T20:33:22.375Z,71.74
2023-03-28T20:35:55.962Z,72.77
2023-03-28T20:38:23.936Z,73.12
2023-03-28T20:40:52.566Z,73.54
2023-03-28T20:43:21.092Z,74.60
2023-03-28T20:45:53.830Z,75.41
2023-03-28T20:48:25.922Z,76.32
2023-03-28T20:50:55.102Z,77.62
2023-03-28T20:53:22.880Z,77.93
2023-03-28T20:56:00.344Z,77.91
2023-03-28T20:58:29.161Z,78.21
2023-03-28T21:00:58.303Z,78.46
2023-03-28T21:03:46.881Z,78.87
2023-03-28T21:06:18.237Z,78.72
2023-03-28T21:08:47.121Z,78.50
2023-03-28T21:11:16.150Z,78.08
2023-03-28T21:13:44.366Z,77.97
2023-03-28T21:16:14.288Z,78.39
2023-03-28T21:18:42.370Z,78.67
2023-03-28T21:21:11.581Z,78.61
2023-03-28T21:23:41.511Z,79.04
2023-03-28T21:26:11.291Z,79.82
2023-03-28T21:28:39.154Z,79.50
2023-03-28T21:31:09.034Z,79.22
2023-03-28T21:33:38.606Z,79.77
2023-03-28T21:36:08.498Z,80.54
2023-03-28T21:38:36.545Z,81.05
2023-03-28T21:41:07.393Z,81.07
2023-03-28T21:43:35.604Z,82.08
2023-03-28T21:46:03.754Z,82.53
2023-03-28T21:48:31.791Z,82.31
2023-03-28T21:51:00.825Z,82.61
2023-03-28T21:53:31.534Z,82.95
2023-03-28T21:55:59.944Z,83.41
2023-03-28T21:58:30.895Z,82.98
2023-03-28T22:00:58.755Z,83.05
2023-03-28T22:03:27.162Z,82.88
2023-03-28T22:05:55.517Z,82.82
2023-03-28T22:08:24.090Z,82.08
2023-03-28T22:10:54.064Z,81.12
2023-03-28T22:13:23.884Z,80.47
2023-03-28T22:15:53.412Z,80.10
2023-03-28T22:18:21.410Z,79.75
2023-03-28T22:20:53.887Z,78.94
2023-03-28T22:23:22.419Z,78.92
2023-03-28T22:25:50.398Z,78.89
2023-03-28T22:28:18.886Z,78.94
2023-03-28T22:30:46.791Z,79.00
2023-03-28T22:33:16.570Z,79.11
2023-03-28T22:35:44.336Z,79.82
2023-03-28T22:38:12.221Z,79.88
2023-03-28T22:40:39.994Z,79.67
2023-03-28T22:43:07.741Z,79.92
2023-03-28T22:45:35.750Z,80.47
2023-03-28T22:48:03.759Z,80.73
2023-03-28T22:50:33.765Z,81.06
2023-03-28T22:53:02.282Z,81.95
2023-03-28T22:55:30.353Z,82.72
2023-03-28T22:57:58.123Z,82.94
2023-03-28T23:00:27.112Z,83.53
2023-03-28T23:02:56.092Z,84.23
2023-03-28T23:05:24.000Z,85.22
2023-03-28T23:07:54.547Z,86.01
2023-03-28T23:10:22.585Z,86.37
2023-03-28T23:12:50.621Z,86.98
2023-03-28T23:15:18.588Z,87.17
2023-03-28T23:17:46.868Z,87.63
2023-03-28T23:20:15.801Z,88.35
2023-03-28T23:22:45.767Z,88.97
2023-03-28T23:25:18.392Z,88.82
2023-03-28T23:27:47.407Z,89.25
2023-03-28T23:30:17.168Z,89.38
2023-03-28T23:32:45.059Z,89.62
2023-03-28T23:35:13.153Z,90.08
2023-03-28T23:37:41.189Z,89.98
2023-03-28T23:40:15.633Z,90.07
2023-03-28T23:42:45.163Z,90.15
2023-03-28T23:45:14.799Z,90.45
2023-03-28T23:47:42.949Z,90.38
2023-03-28T23:50:12.076Z,90.48
2023-03-28T23:52:40.061Z,91.49
2023-03-28T23:55:08.898Z,92.14
2023-03-28T23:57:38.253Z,92.20
